Time;durP1;ratioP1;P1;durP2;ratioP2;P2;SDS_P1;SDS_P2;PMS_P1;PMS_P2;Temp;Humidity;BMP_temperature;BMP_pressure;BME280_temperature;BME280_humidity;BME280_pressure;Samples;Min_cycle;Max_cycle;Signal;HPM_P1;HPM_P2
2021/06/17 00:00:37;;;;;;;5.88;4.60;;;18.90;99.90;;;;;;5052446;28;20040;-75
2021/06/17 00:03:04;;;;;;;7.07;4.07;;;18.90;99.90;;;;;;5051301;28;20079;-76
2021/06/17 00:05:32;;;;;;;5.63;4.55;;;18.80;99.90;;;;;;5051789;28;20024;-77
2021/06/17 00:07:59;;;;;;;4.68;4.28;;;18.80;99.90;;;;;;5052153;28;20036;-77
2021/06/17 00:10:30;;;;;;;5.45;4.72;;;18.80;99.90;;;;;;5067997;28;20022;-76
2021/06/17 00:12:57;;;;;;;4.43;3.93;;;18.70;99.90;;;;;;5052186;28;20049;-75
2021/06/17 00:15:24;;;;;;;4.35;3.92;;;18.60;99.90;;;;;;5051911;28;20017;-77
2021/06/17 00:17:51;;;;;;;6.82;4.22;;;18.60;99.90;;;;;;5063503;28;20526;-76
2021/06/17 00:20:17;;;;;;;4.80;4.28;;;18.50;99.90;;;;;;5066109;28;20032;-77
2021/06/17 00:22:44;;;;;;;4.60;4.20;;;18.50;99.90;;;;;;5055506;28;20104;-77
2021/06/17 00:25:11;;;;;;;6.60;4.88;;;18.50;99.90;;;;;;5053915;28;20068;-77
2021/06/17 00:27:36;;;;;;;7.80;4.70;;;18.50;99.90;;;;;;5057683;28;20063;-77
2021/06/17 00:30:05;;;;;;;8.43;5.38;;;18.40;99.90;;;;;;5071234;28;20029;-77
2021/06/17 00:32:30;;;;;;;9.95;5.20;;;18.40;99.90;;;;;;5055555;28;20037;-77
2021/06/17 00:34:56;;;;;;;5.70;4.88;;;18.30;99.90;;;;;;5055585;28;20035;-77
2021/06/17 00:37:22;;;;;;;5.28;4.82;;;18.30;99.90;;;;;;5055350;28;20478;-77
2021/06/17 00:39:47;;;;;;;6.18;4.65;;;18.20;99.90;;;;;;5054474;28;20478;-77
2021/06/17 00:42:13;;;;;;;6.75;5.10;;;18.20;99.90;;;;;;5055386;28;20021;-77
2021/06/17 00:44:39;;;;;;;5.43;4.93;;;18.20;99.90;;;;;;5055844;28;20024;-76
2021/06/17 00:47:05;;;;;;;10.70;5.18;;;18.20;99.90;;;;;;5071249;28;20036;-76
2021/06/17 00:49:30;;;;;;;5.72;4.22;;;18.20;99.90;;;;;;5054575;28;20441;-77
2021/06/17 00:51:56;;;;;;;7.35;4.80;;;18.10;99.90;;;;;;5070714;28;20475;-76
2021/06/17 00:54:32;;;;;;;7.55;5.13;;;18.00;99.90;;;;;;5054886;28;20069;-76
2021/06/17 00:57:03;;;;;;;6.55;5.32;;;18.00;99.90;;;;;;5054987;28;20021;-76
2021/06/17 00:59:30;;;;;;;6.47;5.23;;;17.90;99.90;;;;;;5054416;28;20043;-75
2021/06/17 01:01:56;;;;;;;7.82;4.80;;;17.90;99.90;;;;;;5055043;28;20283;-76
2021/06/17 01:04:26;;;;;;;5.93;4.63;;;17.90;99.90;;;;;;5055523;28;20055;-75
2021/06/17 01:06:52;;;;;;;5.63;5.10;;;17.70;99.90;;;;;;5053921;28;20030;-76
2021/06/17 01:09:46;;;;;;;9.13;4.85;;;17.70;99.90;;;;;;5054493;28;20028;-75
2021/06/17 01:12:15;;;;;;;5.82;5.22;;;17.60;99.90;;;;;;5036216;28;20048;-75
2021/06/17 01:14:48;;;;;;;5.28;4.85;;;17.60;99.90;;;;;;5058355;28;20028;-77
2021/06/17 01:17:17;;;;;;;8.15;5.15;;;17.50;99.90;;;;;;5054660;28;20096;-76
2021/06/17 01:20:06;;;;;;;6.28;5.68;;;17.60;99.90;;;;;;5053428;28;20040;-76
2021/06/17 01:22:46;;;;;;;9.73;5.57;;;17.60;99.90;;;;;;5054137;28;20082;-77
2021/06/17 01:25:28;;;;;;;5.22;4.80;;;17.50;99.90;;;;;;5053954;28;20021;-75
2021/06/17 01:28:07;;;;;;;7.28;5.03;;;17.40;99.90;;;;;;5054066;28;20074;-77
2021/06/17 01:31:00;;;;;;;6.45;5.00;;;17.40;99.90;;;;;;5053398;28;20025;-76
2021/06/17 01:33:27;;;;;;;;;;;17.30;99.90;;;;;;5054197;28;20033;-77
2021/06/17 01:35:58;;;;;;;7.35;5.75;;;17.30;99.90;;;;;;5054066;28;19983;-75
2021/06/17 01:38:25;;;;;;;6.53;5.93;;;17.30;99.90;;;;;;5068236;28;20667;-75
2021/06/17 01:40:53;;;;;;;7.32;5.53;;;17.30;99.90;;;;;;5053028;28;20029;-76
2021/06/17 01:43:20;;;;;;;6.15;5.43;;;17.30;99.90;;;;;;5054239;28;20083;-77
2021/06/17 01:45:47;;;;;;;9.50;5.20;;;17.20;99.90;;;;;;5053915;28;20028;-76
2021/06/17 01:48:15;;;;;;;6.53;5.15;;;17.10;99.90;;;;;;5053839;28;20028;-77
2021/06/17 01:50:46;;;;;;;7.93;5.63;;;17.10;99.90;;;;;;5053867;28;20017;-78
2021/06/17 01:53:13;;;;;;;6.00;5.32;;;17.00;99.90;;;;;;5053999;28;20159;-78
2021/06/17 01:55:41;;;;;;;6.68;5.43;;;17.10;99.90;;;;;;5055831;28;20025;-78
2021/06/17 01:58:13;;;;;;;10.52;5.88;;;17.10;99.90;;;;;;5054987;28;20021;-78
2021/06/17 02:00:42;;;;;;;6.07;5.30;;;17.10;99.90;;;;;;5053984;28;20025;-77
2021/06/17 02:03:08;;;;;;;5.60;5.13;;;17.00;99.90;;;;;;5054459;28;20029;-77
2021/06/17 02:05:35;;;;;;;8.98;4.95;;;16.90;99.90;;;;;;5054054;28;20032;-78
2021/06/17 02:08:03;;;;;;;8.05;5.53;;;16.90;99.90;;;;;;5054892;28;20029;-78
2021/06/17 02:10:29;;;;;;;5.90;5.40;;;16.90;99.90;;;;;;5054685;28;20017;-77
2021/06/17 02:12:56;;;;;;;7.15;6.05;;;16.90;99.90;;;;;;5058175;28;20183;-77
2021/06/17 02:15:29;;;;;;;5.82;5.32;;;16.90;99.90;;;;;;5059908;28;20033;-78
2021/06/17 02:17:55;;;;;;;;;;;16.80;99.90;;;;;;5054587;28;20424;-77
2021/06/17 02:20:22;;;;;;;5.72;5.22;;;16.80;99.90;;;;;;5053430;28;19957;-78
2021/06/17 02:22:51;;;;;;;7.30;5.63;;;16.80;99.90;;;;;;5053717;28;20041;-77
2021/06/17 02:25:17;;;;;;;7.35;6.10;;;16.70;99.90;;;;;;5045655;28;20052;-79
2021/06/17 02:27:52;;;;;;;7.20;6.40;;;16.80;99.90;;;;;;5034153;28;20017;-78
2021/06/17 02:30:18;;;;;;;6.35;5.25;;;16.70;99.90;;;;;;5034558;28;20022;-77
2021/06/17 02:32:50;;;;;;;6.20;5.05;;;16.70;99.90;;;;;;5036739;28;20082;-77
2021/06/17 02:35:21;;;;;;;7.82;5.30;;;16.60;99.90;;;;;;5034985;28;20115;-77
2021/06/17 02:37:52;;;;;;;7.53;6.25;;;16.60;99.90;;;;;;5034988;28;20167;-77
2021/06/17 02:40:19;;;;;;;7.13;6.28;;;16.50;99.90;;;;;;5033526;28;20434;-77
2021/06/17 02:42:45;;;;;;;8.43;6.03;;;16.50;99.90;;;;;;5051436;28;20029;-77
2021/06/17 02:45:12;;;;;;;8.63;6.15;;;16.50;99.90;;;;;;5033616;28;20053;-77
2021/06/17 02:47:38;;;;;;;7.03;6.15;;;16.40;99.90;;;;;;5032815;28;20100;-78
2021/06/17 02:50:05;;;;;;;8.90;5.88;;;16.40;99.90;;;;;;5032139;28;20021;-77
2021/06/17 02:52:31;;;;;;;8.68;6.05;;;16.40;99.90;;;;;;5032678;28;20025;-77
2021/06/17 02:54:56;;;;;;;11.25;5.68;;;16.50;99.90;;;;;;5038757;28;20086;-78
2021/06/17 02:57:27;;;;;;;8.23;5.50;;;16.40;99.90;;;;;;5053614;28;20059;-79
2021/06/17 03:00:04;;;;;;;7.55;5.80;;;16.30;99.90;;;;;;5052554;28;20475;-77
2021/06/17 03:02:52;;;;;;;11.48;6.45;;;16.30;99.90;;;;;;5052842;28;20124;-77
2021/06/17 03:05:20;;;;;;;6.82;6.07;;;16.30;99.90;;;;;;5053200;28;20052;-76
2021/06/17 03:08:02;;;;;;;7.88;6.15;;;16.20;99.90;;;;;;5067452;28;20112;-77
2021/06/17 03:10:30;;;;;;;9.25;6.22;;;16.20;99.90;;;;;;5052885;28;20029;-77
2021/06/17 03:12:59;;;;;;;9.13;6.55;;;16.20;99.90;;;;;;5052458;28;20053;-78
2021/06/17 03:15:31;;;;;;;7.57;6.40;;;16.10;99.90;;;;;;5054208;28;20024;-79
2021/06/17 03:18:01;;;;;;;8.07;6.97;;;16.00;99.90;;;;;;5053773;28;20074;-79
2021/06/17 03:20:29;;;;;;;8.32;6.35;;;16.00;99.90;;;;;;5052859;28;20395;-76
2021/06/17 03:22:55;;;;;;;11.48;6.93;;;16.00;99.90;;;;;;5066758;28;20032;-78
2021/06/17 03:25:25;;;;;;;10.40;6.40;;;16.00;99.90;;;;;;5051470;28;20025;-78
2021/06/17 03:27:52;;;;;;;7.30;6.03;;;16.00;99.90;;;;;;5053122;28;20021;-78
2021/06/17 03:30:22;;;;;;;6.45;5.75;;;16.00;99.90;;;;;;5052492;28;20051;-76
2021/06/17 03:32:50;;;;;;;6.18;5.43;;;15.90;99.90;;;;;;5053241;28;20029;-77
2021/06/17 03:35:18;;;;;;;6.57;5.97;;;15.90;99.90;;;;;;5052619;28;20510;-76
2021/06/17 03:37:47;;;;;;;8.23;5.53;;;16.00;99.90;;;;;;5050204;28;20094;-76
2021/06/17 03:40:13;;;;;;;8.57;5.93;;;16.00;99.90;;;;;;5040184;28;20029;-76
2021/06/17 03:42:40;;;;;;;12.27;6.60;;;16.00;99.90;;;;;;5033368;28;20403;-76
2021/06/17 03:45:06;;;;;;;9.05;6.57;;;16.10;99.90;;;;;;5040599;28;20670;-76
2021/06/17 03:47:33;;;;;;;9.48;6.75;;;16.10;99.90;;;;;;5030903;28;20033;-76
2021/06/17 03:50:00;;;;;;;8.50;6.88;;;16.10;99.90;;;;;;5030058;28;20167;-77
2021/06/17 03:52:26;;;;;;;11.40;6.60;;;16.00;99.90;;;;;;5031420;28;20038;-77
2021/06/17 03:54:55;;;;;;;8.20;7.00;;;16.10;99.90;;;;;;5030750;28;20042;-76
2021/06/17 03:57:22;;;;;;;7.25;6.03;;;16.10;99.90;;;;;;5030929;28;20108;-75
2021/06/17 03:59:50;;;;;;;8.63;5.88;;;16.20;99.90;;;;;;5030314;28;20026;-75
2021/06/17 04:02:16;;;;;;;9.13;6.57;;;16.20;99.90;;;;;;5032059;28;20037;-76
2021/06/17 04:04:41;;;;;;;6.80;6.13;;;16.40;99.90;;;;;;5035506;28;20018;-76
2021/06/17 04:07:12;;;;;;;8.63;6.53;;;16.40;99.90;;;;;;5035123;28;20096;-76
2021/06/17 04:09:42;;;;;;;9.15;6.82;;;16.40;99.90;;;;;;5033656;28;20086;-76
2021/06/17 04:12:11;;;;;;;10.75;6.70;;;16.50;99.90;;;;;;5035322;28;20041;-76
2021/06/17 04:14:40;;;;;;;7.03;6.43;;;16.40;99.90;;;;;;5053446;28;20017;-77
2021/06/17 04:17:08;;;;;;;9.90;7.10;;;16.40;99.90;;;;;;5054778;28;20037;-76
2021/06/17 04:19:37;;;;;;;9.70;6.35;;;16.40;99.90;;;;;;5054161;28;20803;-75
2021/06/17 04:22:07;;;;;;;7.25;6.63;;;16.50;99.90;;;;;;5054680;28;20069;-78
2021/06/17 04:24:38;;;;;;;11.02;7.00;;;16.50;99.90;;;;;;5055355;28;20021;-76
2021/06/17 04:27:05;;;;;;;11.40;6.43;;;16.60;99.90;;;;;;5054719;28;20543;-76
2021/06/17 04:29:37;;;;;;;10.38;5.90;;;16.60;99.90;;;;;;5043624;28;20021;-75
2021/06/17 04:32:03;;;;;;;8.68;6.28;;;16.60;99.90;;;;;;5043940;28;20036;-76
2021/06/17 04:34:30;;;;;;;7.05;6.35;;;16.60;99.90;;;;;;5049592;28;20025;-77
2021/06/17 04:36:56;;;;;;;8.88;5.95;;;16.70;99.90;;;;;;5054807;28;20025;-76
2021/06/17 04:39:26;;;;;;;11.00;7.03;;;16.70;99.90;;;;;;5054623;28;20036;-75
2021/06/17 04:41:53;;;;;;;15.60;6.90;;;16.70;99.90;;;;;;5053886;28;20063;-76
2021/06/17 04:44:20;;;;;;;8.13;6.70;;;16.70;99.90;;;;;;5054500;28;20032;-76
2021/06/17 04:46:47;;;;;;;8.18;6.75;;;16.70;99.90;;;;;;5054464;28;20096;-78
2021/06/17 04:49:15;;;;;;;9.90;7.03;;;16.70;99.90;;;;;;5054540;28;20501;-77
2021/06/17 04:51:42;;;;;;;10.25;7.10;;;16.80;99.90;;;;;;5054757;28;20104;-78
2021/06/17 04:54:20;;;;;;;7.55;6.82;;;16.80;99.90;;;;;;5054478;28;20101;-77
2021/06/17 04:56:47;;;;;;;14.43;6.88;;;16.80;99.90;;;;;;5054483;28;20025;-76
2021/06/17 04:59:13;;;;;;;9.15;6.70;;;16.80;99.90;;;;;;5040444;28;20034;-72
2021/06/17 05:01:40;;;;;;;8.60;7.35;;;16.90;99.90;;;;;;5013510;28;20022;-74
2021/06/17 05:04:07;;;;;;;8.02;7.18;;;17.00;99.90;;;;;;5014281;28;20022;-75
2021/06/17 05:06:35;;;;;;;9.52;7.72;;;17.20;99.90;;;;;;5013575;28;20026;-71
2021/06/17 05:11:44;;;;;;;7.78;6.75;;;17.30;99.90;;;;;;5013413;28;20045;-71
2021/06/17 05:14:11;;;;;;;8.90;6.80;;;17.40;99.90;;;;;;5044081;28;20396;-71
2021/06/17 05:16:37;;;;;;;9.02;7.38;;;17.40;99.90;;;;;;5054474;28;20390;-70
2021/06/17 05:19:02;;;;;;;10.18;7.88;;;17.50;99.90;;;;;;5053506;28;20017;-71
2021/06/17 05:21:28;;;;;;;12.80;8.25;;;17.50;99.90;;;;;;5053174;28;20047;-73
2021/06/17 05:23:54;;;;;;;13.32;9.85;;;17.60;99.90;;;;;;5054930;28;20391;-79
2021/06/17 05:26:22;;;;;;;13.18;9.23;;;17.70;99.90;;;;;;5055054;28;20106;-76
2021/06/17 05:28:49;;;;;;;9.60;7.25;;;17.80;99.90;;;;;;5055646;28;20071;-76
2021/06/17 05:31:14;;;;;;;13.75;8.18;;;17.80;99.90;;;;;;5052928;28;20070;-75
2021/06/17 05:33:40;;;;;;;8.48;7.07;;;17.90;99.90;;;;;;5047195;28;20025;-74
2021/06/17 05:36:06;;;;;;;8.27;7.32;;;17.90;99.90;;;;;;5038550;28;20025;-75
2021/06/17 05:38:33;;;;;;;8.02;6.40;;;17.90;99.90;;;;;;5038503;28;20037;-75
2021/06/17 05:41:00;;;;;;;8.95;6.95;;;18.10;99.90;;;;;;5036385;28;20064;-75
2021/06/17 05:43:26;;;;;;;10.20;6.05;;;18.30;99.90;;;;;;5048550;28;20032;-74
2021/06/17 05:45:52;;;;;;;6.63;6.03;;;18.50;99.90;;;;;;5060486;28;20017;-75
2021/06/17 05:48:17;;;;;;;9.15;6.93;;;18.60;99.90;;;;;;5061112;28;20031;-75
2021/06/17 05:50:43;;;;;;;9.70;5.82;;;18.60;99.90;;;;;;5039580;28;20395;-76
2021/06/17 05:53:09;;;;;;;7.68;6.35;;;18.70;99.90;;;;;;5037372;28;20087;-76
2021/06/17 05:55:35;;;;;;;11.07;5.97;;;18.70;99.90;;;;;;5033413;28;20057;-76
2021/06/17 05:58:01;;;;;;;10.90;6.38;;;18.80;99.90;;;;;;5033204;28;20034;-75
2021/06/17 06:00:26;;;;;;;8.00;6.25;;;18.90;99.90;;;;;;5017104;28;20028;-76
2021/06/17 06:02:52;;;;;;;6.20;5.60;;;18.90;99.90;;;;;;5038375;28;20485;-76
2021/06/17 06:05:19;;;;;;;6.88;5.65;;;18.90;99.90;;;;;;5013335;28;20026;-76
2021/06/17 06:07:44;;;;;;;9.77;5.78;;;19.00;99.90;;;;;;5016524;28;20013;-77
2021/06/17 06:10:15;;;;;;;7.57;5.32;;;19.10;99.90;;;;;;5032360;28;20098;-78
2021/06/17 06:12:41;;;;;;;6.70;6.00;;;19.20;99.90;;;;;;5035052;28;20483;-76
2021/06/17 06:15:07;;;;;;;8.02;5.57;;;19.20;99.90;;;;;;5053482;28;20072;-78
2021/06/17 06:17:33;;;;;;;8.07;5.70;;;19.30;99.90;;;;;;5053131;28;20360;-76
2021/06/17 06:19:59;;;;;;;9.82;5.32;;;19.50;99.90;;;;;;5052048;28;20055;-77
2021/06/17 06:22:25;;;;;;;5.68;5.18;;;19.70;99.90;;;;;;5053194;28;20032;-77
2021/06/17 06:24:51;;;;;;;10.35;5.85;;;19.80;99.90;;;;;;5052390;28;20391;-76
2021/06/17 06:27:16;;;;;;;7.35;5.38;;;19.90;99.90;;;;;;5052736;28;20032;-75
2021/06/17 06:29:42;;;;;;;6.28;5.43;;;20.00;99.90;;;;;;5033130;28;20021;-76
2021/06/17 06:32:09;;;;;;;8.73;5.57;;;20.10;99.90;;;;;;5032154;28;20518;-77
2021/06/17 06:34:35;;;;;;;7.15;4.43;;;20.10;99.90;;;;;;5032529;28;20571;-76
2021/06/17 06:37:01;;;;;;;10.65;4.55;;;20.20;99.90;;;;;;5032320;28;20403;-75
2021/06/17 06:39:27;;;;;;;9.23;5.10;;;20.50;99.90;;;;;;5031727;28;20045;-77
2021/06/17 06:41:53;;;;;;;5.10;4.60;;;20.80;99.90;;;;;;5032609;28;20025;-77
2021/06/17 06:44:19;;;;;;;6.40;4.75;;;21.00;99.90;;;;;;5048264;28;20086;-76
2021/06/17 06:46:45;;;;;;;9.00;5.03;;;21.10;99.90;;;;;;5048211;28;20025;-76
2021/06/17 06:49:11;;;;;;;5.78;4.40;;;21.30;99.90;;;;;;5032249;28;20028;-77
2021/06/17 06:51:40;;;;;;;5.22;4.38;;;21.50;99.90;;;;;;5031471;28;20022;-76
2021/06/17 06:54:08;;;;;;;7.38;4.55;;;21.60;99.90;;;;;;5032436;28;20395;-77
2021/06/17 06:56:35;;;;;;;7.28;4.15;;;21.90;99.90;;;;;;5032298;28;20447;-76
2021/06/17 06:59:00;;;;;;;5.20;3.95;;;22.00;99.90;;;;;;5033704;28;20025;-77
2021/06/17 07:01:26;;;;;;;7.18;4.25;;;22.10;99.90;;;;;;5031934;28;20573;-75
2021/06/17 07:03:51;;;;;;;8.35;4.30;;;22.20;99.90;;;;;;5032810;28;20034;-77
2021/06/17 07:06:17;;;;;;;9.43;4.30;;;22.50;99.90;;;;;;5033879;28;20152;-74
2021/06/17 07:08:43;;;;;;;6.45;4.00;;;22.60;99.90;;;;;;5034280;28;20151;-76
2021/06/17 07:11:08;;;;;;;4.32;3.97;;;22.80;99.90;;;;;;5031147;28;20151;-76
2021/06/17 07:13:34;;;;;;;5.28;3.80;;;22.80;99.90;;;;;;5041891;28;20030;-76
2021/06/17 07:16:00;;;;;;;7.60;3.95;;;22.90;99.90;;;;;;5051699;28;20036;-76
2021/06/17 07:18:25;;;;;;;6.32;3.63;;;23.00;99.90;;;;;;5051959;28;20380;-75
2021/06/17 07:20:51;;;;;;;3.17;2.97;;;23.20;99.90;;;;;;5049748;28;20055;-75
2021/06/17 07:23:16;;;;;;;7.55;4.00;;;23.20;99.90;;;;;;5047434;28;20017;-77
2021/06/17 07:25:42;;;;;;;3.13;2.83;;;23.40;99.90;;;;;;5031689;28;20108;-78
2021/06/17 07:28:08;;;;;;;4.50;3.47;;;23.60;99.90;;;;;;5031726;28;20071;-77
2021/06/17 07:30:34;;;;;;;5.38;2.70;;;23.90;99.90;;;;;;5030942;28;20214;-76
2021/06/17 07:33:00;;;;;;;7.88;3.10;;;24.10;99.90;;;;;;5031745;28;20491;-77
2021/06/17 07:35:26;;;;;;;4.10;2.88;;;24.20;99.90;;;;;;5031684;28;20033;-77
2021/06/17 07:37:52;;;;;;;3.63;3.10;;;24.20;99.90;;;;;;5030694;28;20060;-76
2021/06/17 07:40:18;;;;;;;5.70;2.70;;;24.40;99.90;;;;;;5029697;28;20456;-77
2021/06/17 07:42:44;;;;;;;4.93;3.15;;;24.40;99.90;;;;;;5034616;28;20099;-75
2021/06/17 07:45:11;;;;;;;6.15;3.30;;;24.50;99.90;;;;;;5051604;28;20110;-76
2021/06/17 07:47:38;;;;;;;5.82;3.40;;;24.80;99.90;;;;;;5051666;28;20074;-75
2021/06/17 07:50:07;;;;;;;7.32;3.25;;;24.90;99.90;;;;;;5050916;28;20104;-76
2021/06/17 07:52:33;;;;;;;9.15;3.70;;;25.10;99.90;;;;;;5051161;28;20025;-75
2021/06/17 07:54:58;;;;;;;3.65;3.10;;;25.30;99.90;;;;;;5051197;28;20055;-75
2021/06/17 07:57:24;;;;;;;4.45;3.63;;;25.60;99.90;;;;;;5051270;28;20466;-75
2021/06/17 07:59:50;;;;;;;6.78;3.28;;;25.70;99.90;;;;;;5050869;28;20025;-76
2021/06/17 08:02:15;;;;;;;4.15;3.13;;;25.90;99.90;;;;;;5051061;28;20108;-75
2021/06/17 08:04:41;;;;;;;4.72;3.28;;;26.20;99.90;;;;;;5050637;28;20071;-76
2021/06/17 08:07:07;;;;;;;4.28;3.17;;;26.40;99.90;;;;;;5051162;28;20104;-72
2021/06/17 08:09:33;;;;;;;3.25;2.95;;;26.30;99.90;;;;;;5050372;28;20038;-73
2021/06/17 08:11:59;;;;;;;3.75;3.22;;;26.40;99.90;;;;;;5050558;28;20021;-73
2021/06/17 08:14:26;;;;;;;6.28;2.83;;;26.70;99.70;;;;;;5051544;28;20036;-73
2021/06/17 08:16:54;;;;;;;3.63;2.70;;;27.00;96.50;;;;;;5051783;28;20428;-73
2021/06/17 08:19:26;;;;;;;7.28;3.03;;;27.30;95.40;;;;;;5051829;28;20379;-73
2021/06/17 08:21:52;;;;;;;4.45;2.90;;;27.50;97.00;;;;;;5051656;28;20482;-74
2021/06/17 08:24:17;;;;;;;3.95;3.13;;;27.70;97.00;;;;;;5039533;28;20065;-74
2021/06/17 08:26:43;;;;;;;3.47;2.90;;;28.20;97.80;;;;;;5031014;28;20052;-73
2021/06/17 08:29:09;;;;;;;7.80;2.92;;;28.50;96.50;;;;;;5030539;28;20380;-73
2021/06/17 08:31:36;;;;;;;6.75;2.33;;;28.90;95.50;;;;;;5030428;28;20100;-73
2021/06/17 08:34:03;;;;;;;4.13;2.65;;;28.90;95.30;;;;;;5034657;28;20021;-73
2021/06/17 08:36:28;;;;;;;6.30;3.17;;;29.20;94.10;;;;;;5050567;28;20507;-73
2021/06/17 08:38:54;;;;;;;7.00;2.95;;;29.30;93.60;;;;;;5050616;28;20044;-73
2021/06/17 08:41:20;;;;;;;4.00;2.63;;;29.80;92.00;;;;;;5049393;28;20025;-73
2021/06/17 08:43:46;;;;;;;8.07;2.65;;;29.90;91.30;;;;;;5066200;28;20047;-72
2021/06/17 08:46:11;;;;;;;8.73;2.65;;;30.00;91.40;;;;;;5050558;28;20027;-72
2021/06/17 08:48:39;;;;;;;7.57;2.67;;;29.90;89.50;;;;;;5052133;28;20375;-73
2021/06/17 08:51:05;;;;;;;2.40;2.28;;;29.70;90.50;;;;;;5053733;28;20017;-73
2021/06/17 08:53:31;;;;;;;7.38;2.30;;;29.80;87.70;;;;;;5054385;28;20584;-72
2021/06/17 08:55:56;;;;;;;6.13;2.25;;;30.00;87.60;;;;;;5053722;28;20040;-73
2021/06/17 08:58:22;;;;;;;4.32;2.45;;;30.70;88.10;;;;;;5054127;28;20063;-73
2021/06/17 09:00:50;;;;;;;6.60;2.25;;;31.10;84.10;;;;;;5053512;28;20040;-73
2021/06/17 09:03:18;;;;;;;4.07;2.10;;;30.30;85.60;;;;;;5053883;28;20490;-73
2021/06/17 09:05:56;;;;;;;5.35;2.00;;;30.90;85.70;;;;;;5054127;28;20025;-72
2021/06/17 09:08:27;;;;;;;6.30;2.45;;;32.00;86.80;;;;;;5053786;28;20017;-72
2021/06/17 09:10:54;;;;;;;5.30;2.30;;;32.80;83.60;;;;;;5051967;28;20099;-72
2021/06/17 09:13:26;;;;;;;4.05;2.47;;;33.30;81.50;;;;;;5053674;28;20021;-72
2021/06/17 09:15:54;;;;;;;5.57;1.90;;;32.30;82.70;;;;;;5053856;28;20017;-72
2021/06/17 09:18:23;;;;;;;5.35;2.20;;;32.30;84.10;;;;;;5053757;28;20329;-72
2021/06/17 09:20:53;;;;;;;4.00;1.77;;;31.70;75.80;;;;;;5052874;28;20112;-72
2021/06/17 09:23:23;;;;;;;2.45;2.15;;;31.20;80.50;;;;;;5065035;28;20026;-72
2021/06/17 09:26:06;;;;;;;4.40;1.60;;;30.40;77.50;;;;;;5017869;28;20018;-71
2021/06/17 09:28:47;;;;;;;4.55;1.70;;;30.60;80.30;;;;;;5014005;28;20450;-71
2021/06/17 09:31:44;;;;;;;1.70;1.60;;;31.10;78.60;;;;;;5013180;28;20499;-71
2021/06/17 09:34:11;;;;;;;2.95;1.70;;;32.00;76.20;;;;;;5018530;28;20859;-71
2021/06/17 09:36:39;;;;;;;2.05;1.58;;;32.80;71.50;;;;;;5033581;28;20029;-70
2021/06/17 09:39:19;;;;;;;6.70;2.10;;;33.00;69.30;;;;;;5033778;28;20057;-71
2021/06/17 09:41:54;;;;;;;1.90;1.80;;;33.10;67.60;;;;;;5012073;28;20676;-71
2021/06/17 09:44:35;;;;;;;2.15;1.80;;;32.80;69.90;;;;;;5013816;28;20033;-71
2021/06/17 09:47:03;;;;;;;6.72;2.20;;;33.30;69.50;;;;;;5013732;28;20025;-71
2021/06/17 09:49:29;;;;;;;3.85;1.75;;;34.20;69.10;;;;;;5012880;28;20018;-71
2021/06/17 09:51:55;;;;;;;1.67;1.58;;;34.10;63.10;;;;;;5013340;28;20072;-71
2021/06/17 09:54:25;;;;;;;2.05;1.80;;;33.90;66.70;;;;;;5012080;28;20136;-71
2021/06/17 09:57:02;;;;;;;5.60;1.80;;;33.80;66.60;;;;;;5013571;28;20025;-71
2021/06/17 09:59:50;;;;;;;7.50;2.10;;;33.90;65.40;;;;;;5011881;28;20490;-70
2021/06/17 10:02:38;;;;;;;5.22;1.88;;;34.50;65.40;;;;;;5013853;28;20095;-71
2021/06/17 10:05:23;;;;;;;2.53;1.67;;;33.80;63.20;;;;;;5013510;28;20029;-71
2021/06/17 10:07:50;;;;;;;3.00;1.65;;;32.50;67.00;;;;;;5013472;28;20034;-70
2021/06/17 10:10:22;;;;;;;5.60;2.08;;;32.10;64.00;;;;;;5028577;28;20048;-72
2021/06/17 10:12:47;;;;;;;2.80;2.13;;;31.70;68.30;;;;;;5052658;28;20048;-72
2021/06/17 10:15:14;;;;;;;4.68;1.80;;;32.00;69.60;;;;;;5052960;28;20459;-72
2021/06/17 10:17:40;;;;;;;4.85;2.38;;;32.70;68.70;;;;;;5052437;28;20525;-72
2021/06/17 10:20:09;;;;;;;2.60;2.20;;;33.30;65.80;;;;;;5052162;28;20439;-70
2021/06/17 10:22:39;;;;;;;2.17;2.00;;;33.30;65.90;;;;;;5053191;28;20079;-72
2021/06/17 10:25:07;;;;;;;2.50;2.13;;;33.60;65.30;;;;;;5034261;28;20105;-72
2021/06/17 10:27:34;;;;;;;4.50;2.22;;;34.30;67.00;;;;;;5032743;28;20112;-71
2021/06/17 10:30:00;;;;;;;4.30;2.40;;;34.60;64.80;;;;;;5033036;28;20683;-72
2021/06/17 10:32:33;;;;;;;3.70;2.25;;;33.70;60.00;;;;;;5033380;28;20539;-73
2021/06/17 10:34:59;;;;;;;2.28;2.10;;;33.90;59.30;;;;;;5033220;28;20095;-72
2021/06/17 10:37:32;;;;;;;2.03;1.83;;;33.50;61.60;;;;;;5032461;28;20025;-71
2021/06/17 10:40:10;;;;;;;4.25;1.85;;;33.40;61.40;;;;;;5082679;22;20047;-74
2021/06/17 10:42:57;;;;;;;4.47;2.08;;;34.10;61.10;;;;;;5098121;28;20028;-72
2021/06/17 10:45:32;;;;;;;5.10;2.65;;;34.40;59.30;;;;;;5106465;28;20077;-74
2021/06/17 10:48:24;;;;;;;2.53;2.33;;;34.80;61.40;;;;;;5093413;28;20024;-74
2021/06/17 10:51:00;;;;;;;3.28;2.25;;;35.10;59.90;;;;;;5095886;28;20037;-74
2021/06/17 10:53:35;;;;;;;4.88;2.15;;;35.10;59.40;;;;;;5093662;28;20566;-73
2021/06/17 10:56:16;;;;;;;2.15;1.95;;;34.60;59.60;;;;;;5095710;28;20042;-72
2021/06/17 10:58:45;;;;;;;2.08;1.90;;;34.60;55.30;;;;;;5114300;28;20055;-74
2021/06/17 11:01:33;;;;;;;1.85;1.75;;;34.20;53.40;;;;;;5115177;28;20099;-72
2021/06/17 11:04:32;;;;;;;2.80;2.10;;;34.40;57.30;;;;;;5116879;28;20028;-74
2021/06/17 11:07:04;;;;;;;3.13;1.98;;;34.80;56.40;;;;;;5112681;28;20500;-73
2021/06/17 11:09:44;;;;;;;3.75;2.38;;;35.20;57.10;;;;;;5112823;28;20384;-72
2021/06/17 11:12:13;;;;;;;2.38;2.17;;;35.80;56.00;;;;;;5115177;28;20070;-73
2021/06/17 11:14:40;;;;;;;2.85;1.98;;;36.30;56.10;;;;;;5113091;28;20104;-74
2021/06/17 11:17:34;;;;;;;2.88;2.15;;;36.70;55.70;;;;;;5114298;28;20026;-74
2021/06/17 11:20:20;;;;;;;8.85;2.25;;;37.30;55.50;;;;;;5114118;28;20020;-72
2021/06/17 11:22:58;;;;;;;2.33;2.13;;;37.00;53.50;;;;;;5116199;28;20035;-74
2021/06/17 11:25:25;;;;;;;2.63;1.85;;;36.50;52.90;;;;;;5113402;28;20038;-72
2021/06/17 11:27:58;;;;;;;2.50;2.10;;;36.20;53.80;;;;;;5118190;28;20028;-72
2021/06/17 11:30:39;;;;;;;2.17;1.98;;;36.20;54.00;;;;;;5119153;28;20069;-73
2021/06/17 11:36:02;;;;;;;2.55;1.73;;;36.70;50.90;;;;;;5117444;28;20035;-73
2021/06/17 11:38:33;;;;;;;2.47;1.92;;;36.30;52.10;;;;;;5118992;28;20504;-73
2021/06/17 11:41:10;;;;;;;4.55;1.90;;;36.80;55.60;;;;;;5116010;28;20118;-73
2021/06/17 11:43:36;;;;;;;2.30;2.17;;;36.50;50.90;;;;;;5098050;28;20062;-73
2021/06/17 11:46:01;;;;;;;4.35;2.00;;;36.30;51.30;;;;;;5097383;28;20024;-73
2021/06/17 11:48:28;;;;;;;3.15;2.33;;;36.50;53.70;;;;;;5097879;28;20035;-73
2021/06/17 11:50:55;;;;;;;6.72;2.00;;;36.90;51.40;;;;;;5096472;28;20099;-73
2021/06/17 11:53:23;;;;;;;2.17;1.95;;;37.40;53.90;;;;;;5099060;28;20020;-72
2021/06/17 11:55:54;;;;;;;3.58;2.20;;;37.00;51.90;;;;;;5098728;28;20039;-73
2021/06/17 11:58:21;;;;;;;2.45;2.10;;;37.00;51.30;;;;;;5097653;28;20024;-73
2021/06/17 12:00:46;;;;;;;2.40;2.20;;;36.70;50.60;;;;;;5096237;28;20024;-73
2021/06/17 12:03:22;;;;;;;3.65;1.90;;;36.80;52.60;;;;;;5100671;28;20022;-72
2021/06/17 12:05:48;;;;;;;2.17;2.00;;;36.10;51.70;;;;;;5112771;28;20068;-73
2021/06/17 12:08:14;;;;;;;4.25;1.92;;;36.00;51.30;;;;;;5112330;28;20038;-75
2021/06/17 12:10:45;;;;;;;2.25;2.05;;;35.60;51.40;;;;;;5112287;28;20020;-74
2021/06/17 12:13:13;;;;;;;3.72;2.00;;;36.20;52.10;;;;;;5112782;28;20024;-74
2021/06/17 12:15:41;;;;;;;1.77;1.67;;;36.40;51.50;;;;;;5112994;28;20024;-75
2021/06/17 12:18:11;;;;;;;5.82;2.40;;;36.10;53.40;;;;;;5109170;28;20028;-73
2021/06/17 12:20:46;;;;;;;3.42;2.10;;;35.90;53.00;;;;;;5091402;28;20032;-73
2021/06/17 12:23:22;;;;;;;8.10;2.10;;;35.70;52.10;;;;;;5094057;28;20523;-74
2021/06/17 12:25:59;;;;;;;3.58;1.90;;;35.50;52.40;;;;;;5104113;28;20023;-74
2021/06/17 12:28:25;;;;;;;5.85;2.38;;;35.80;52.00;;;;;;5105839;28;20019;-74
2021/06/17 12:30:52;;;;;;;2.08;1.98;;;36.40;52.50;;;;;;5106240;28;20121;-74
2021/06/17 12:33:31;;;;;;;3.22;2.42;;;36.60;51.50;;;;;;5106237;28;20039;-74
2021/06/17 12:36:02;;;;;;;3.40;1.92;;;36.20;51.40;;;;;;5106013;28;20533;-73
2021/06/17 12:38:35;;;;;;;4.45;2.30;;;36.50;52.10;;;;;;5105168;28;20021;-73
2021/06/17 12:41:22;;;;;;;4.55;1.85;;;36.20;51.90;;;;;;5103182;28;20024;-73
2021/06/17 12:43:48;;;;;;;2.42;2.10;;;36.80;54.60;;;;;;5104827;28;20023;-73
2021/06/17 12:46:16;;;;;;;3.05;2.60;;;37.40;51.50;;;;;;5104770;28;20389;-73
2021/06/17 12:54:21;;;;;;;4.05;1.98;;;37.40;49.10;;;;;;5113994;28;20559;-73
2021/06/17 12:57:04;;;;;;;6.18;2.22;;;37.20;48.60;;;;;;5115861;28;20023;-73
2021/06/17 12:59:53;;;;;;;7.40;2.00;;;36.70;48.90;;;;;;5114506;28;20481;-73
2021/06/17 13:02:22;;;;;;;2.20;2.00;;;36.90;51.30;;;;;;5116011;28;20019;-73
2021/06/17 13:05:08;;;;;;;2.28;2.08;;;36.60;50.90;;;;;;5115468;28;20019;-74
2021/06/17 13:07:38;;;;;;;3.22;2.00;;;36.10;50.50;;;;;;5114686;28;20020;-74